createdAt,value
2022-12-08T00:03:06.271Z,10.94
2022-12-08T00:08:50.443Z,10.92
2022-12-08T00:14:35.146Z,10.91
2022-12-08T00:20:19.069Z,10.89
2022-12-08T00:26:05.577Z,10.88
2022-12-08T00:31:48.605Z,10.93
2022-12-08T00:37:31.866Z,10.95
2022-12-08T00:43:14.799Z,10.91
2022-12-08T00:48:58.924Z,10.87
2022-12-08T00:54:42.040Z,10.83
2022-12-08T01:00:25.801Z,10.78
2022-12-08T01:06:09.476Z,10.79
2022-12-08T01:11:52.728Z,10.75
2022-12-08T01:17:36.486Z,10.71
2022-12-08T01:23:19.888Z,10.68
2022-12-08T01:29:02.709Z,10.66
2022-12-08T01:34:45.681Z,10.67
2022-12-08T01:40:28.797Z,10.67
2022-12-08T01:46:11.868Z,10.66
2022-12-08T01:51:57.471Z,10.67
2022-12-08T01:57:42.717Z,10.66
2022-12-08T02:03:28.421Z,10.67
2022-12-08T02:09:11.628Z,10.64
2022-12-08T02:14:54.636Z,10.63
2022-12-08T02:20:51.078Z,10.66
2022-12-08T02:26:43.780Z,10.63
2022-12-08T02:32:40.952Z,10.65
2022-12-08T02:38:28.716Z,10.65
2022-12-08T02:44:16.831Z,10.65
2022-12-08T02:49:59.792Z,10.65
2022-12-08T02:55:49.255Z,10.63
2022-12-08T03:01:42.776Z,10.61
2022-12-08T03:07:29.888Z,10.63
2022-12-08T03:13:14.090Z,10.6
2022-12-08T03:19:00.346Z,10.58
2022-12-08T03:24:45.141Z,10.56
2022-12-08T03:30:29.198Z,10.59
2022-12-08T03:36:13.559Z,10.57
2022-12-08T03:41:56.613Z,10.56
2022-12-08T03:47:39.653Z,10.53
2022-12-08T03:53:22.610Z,10.54
2022-12-08T03:59:06.114Z,10.53
2022-12-08T04:04:50.253Z,10.53
2022-12-08T04:10:33.174Z,10.54
2022-12-08T04:16:19.162Z,10.51
2022-12-08T04:22:02.581Z,10.48
2022-12-08T04:27:45.565Z,10.46
2022-12-08T04:33:28.722Z,10.5
2022-12-08T04:39:11.573Z,10.46
2022-12-08T04:44:54.437Z,10.43
2022-12-08T04:50:38.745Z,10.44
2022-12-08T04:56:21.866Z,10.43
2022-12-08T05:02:05.202Z,10.43
2022-12-08T05:07:48.570Z,10.46
2022-12-08T05:13:32.939Z,10.43
2022-12-08T05:19:16.727Z,10.41
2022-12-08T05:24:59.937Z,10.42
2022-12-08T05:30:42.581Z,10.4
2022-12-08T05:36:25.520Z,10.41
2022-12-08T05:42:08.606Z,10.41
2022-12-08T05:47:52.474Z,10.38
2022-12-08T05:53:36.245Z,10.37
2022-12-08T05:59:20.206Z,10.37
2022-12-08T06:05:03.408Z,10.37
2022-12-08T06:10:46.526Z,10.4
2022-12-08T06:16:29.590Z,10.36
2022-12-08T06:22:12.893Z,10.36
2022-12-08T06:27:55.941Z,10.36
2022-12-08T06:33:39.144Z,10.35
2022-12-08T06:39:22.102Z,10.34
2022-12-08T06:45:05.364Z,10.66
2022-12-08T06:50:48.376Z,10.73
2022-12-08T06:56:32.672Z,10.51
2022-12-08T07:02:15.703Z,10.41
2022-12-08T07:07:59.197Z,10.35
2022-12-08T07:13:42.330Z,10.29
2022-12-08T07:19:25.368Z,10.27
2022-12-08T07:25:08.858Z,10.27
2022-12-08T07:30:51.881Z,10.27
2022-12-08T07:36:34.949Z,10.27
2022-12-08T07:42:18.041Z,10.26
2022-12-08T07:48:01.072Z,10.27
2022-12-08T07:53:48.525Z,10.32
2022-12-08T07:59:37.515Z,10.39
2022-12-08T08:05:21.860Z,10.42
2022-12-08T08:11:13.523Z,10.4
2022-12-08T08:17:03.161Z,10.45
2022-12-08T08:22:47.552Z,10.53
2022-12-08T08:28:30.461Z,10.66
2022-12-08T08:34:13.530Z,10.69
2022-12-08T08:39:56.873Z,10.75
2022-12-08T08:45:40.242Z,10.8
2022-12-08T08:51:23.570Z,10.87
2022-12-08T08:57:06.718Z,10.9
2022-12-08T09:02:49.889Z,10.96
2022-12-08T09:08:32.806Z,10.99
2022-12-08T09:14:15.959Z,11.04
2022-12-08T09:19:58.994Z,11.09
2022-12-08T09:25:43.285Z,11.16
2022-12-08T09:31:26.535Z,11.22
2022-12-08T09:37:09.823Z,11.32
2022-12-08T09:42:58.260Z,11.4
2022-12-08T09:48:43.186Z,11.5
2022-12-08T09:54:31.245Z,11.54
2022-12-08T10:00:15.513Z,11.57
2022-12-08T10:06:01.835Z,11.61
2022-12-08T10:11:49.776Z,11.65
2022-12-08T10:17:38.460Z,11.68
2022-12-08T10:23:25.050Z,11.72
2022-12-08T10:29:08.944Z,11.76
2022-12-08T10:35:06.375Z,11.84
2022-12-08T10:40:50.383Z,11.97
2022-12-08T10:46:37.632Z,12.01
2022-12-08T10:52:25.683Z,12.02
2022-12-08T10:58:14.777Z,12.04
2022-12-08T11:03:59.697Z,12.08
2022-12-08T11:09:45.555Z,12.14
2022-12-08T11:15:31.969Z,12.2
2022-12-08T11:21:16.410Z,12.23
2022-12-08T11:27:00.965Z,12.29
2022-12-08T11:32:45.135Z,12.36
2022-12-08T11:38:29.589Z,12.42
2022-12-08T11:44:18.744Z,12.46
2022-12-08T11:50:07.414Z,12.49
2022-12-08T11:55:54.932Z,12.51
2022-12-08T12:01:42.467Z,12.54
2022-12-08T12:07:46.177Z,12.47
2022-12-08T12:13:43.609Z,12.42
2022-12-08T12:19:28.625Z,12.38
2022-12-08T12:25:21.212Z,12.37
2022-12-08T12:31:06.761Z,12.32
2022-12-08T12:36:52.317Z,12.28
2022-12-08T12:42:40.118Z,12.29
2022-12-08T12:48:29.344Z,12.4
2022-12-08T12:54:23.325Z,12.39
2022-12-08T13:00:17.377Z,12.31
2022-12-08T13:06:01.199Z,12.3
2022-12-08T13:11:51.773Z,12.31
2022-12-08T13:17:36.114Z,12.34
2022-12-08T13:23:34.425Z,12.36
2022-12-08T13:29:18.741Z,12.36
2022-12-08T13:35:04.037Z,12.4
2022-12-08T13:40:47.683Z,12.39
2022-12-08T13:58:46.719Z,12.48
2022-12-08T14:10:32.874Z,12.48
2022-12-08T14:16:23.356Z,12.51
2022-12-08T14:22:10.546Z,12.57
2022-12-08T14:27:56.437Z,12.61
2022-12-08T14:33:40.428Z,12.63
2022-12-08T14:39:23.824Z,12.63
2022-12-08T14:45:09.803Z,12.63
2022-12-08T14:51:05.042Z,12.6
2022-12-08T14:56:50.935Z,12.57
2022-12-08T15:02:37.418Z,12.54
2022-12-08T15:08:20.560Z,12.46
2022-12-08T15:14:04.049Z,12.35
2022-12-08T15:19:51.938Z,12.26
2022-12-08T15:25:35.182Z,12.17
2022-12-08T15:31:18.844Z,12.07
2022-12-08T15:37:02.840Z,11.98
2022-12-08T15:42:45.834Z,11.89
2022-12-08T15:48:30.520Z,11.81
2022-12-08T15:54:14.031Z,11.71
2022-12-08T15:59:57.346Z,11.63
2022-12-08T16:05:46.795Z,11.61
2022-12-08T16:17:47.775Z,11.52
2022-12-08T16:23:45.982Z,11.44
2022-12-08T16:29:26.409Z,11.4
2022-12-08T16:35:10.574Z,11.33
2022-12-08T16:40:53.653Z,11.27
2022-12-08T16:46:36.680Z,11.23
2022-12-08T16:52:20.044Z,11.17
2022-12-08T16:58:03.290Z,11.13
2022-12-08T17:04:01.268Z,11.1
2022-12-08T17:09:49.295Z,11.1
2022-12-08T17:15:32.473Z,11.08
2022-12-08T17:21:17.514Z,11.03
2022-12-08T17:27:00.585Z,11
2022-12-08T17:32:44.242Z,10.96
2022-12-08T17:38:27.191Z,10.92
2022-12-08T17:44:15.134Z,10.87
2022-12-08T17:49:58.626Z,10.84
2022-12-08T17:55:43.126Z,10.75
2022-12-08T18:01:26.735Z,10.82
2022-12-08T18:07:10.875Z,10.99
2022-12-08T18:12:54.107Z,10.77
2022-12-08T18:18:37.129Z,10.61
2022-12-08T18:24:21.620Z,10.5
2022-12-08T18:30:06.330Z,10.44
2022-12-08T18:35:51.014Z,10.41
2022-12-08T18:41:34.447Z,10.34
2022-12-08T18:47:18.135Z,10.3
2022-12-08T18:53:01.183Z,10.23
2022-12-08T18:58:45.264Z,10.17
2022-12-08T19:04:29.139Z,10.09
2022-12-08T19:10:19.688Z,10.05
2022-12-08T19:16:02.559Z,9.99
2022-12-08T19:21:46.599Z,9.96
2022-12-08T19:27:30.462Z,9.92
2022-12-08T19:33:14.747Z,9.9
2022-12-08T19:38:59.536Z,9.84
2022-12-08T19:44:45.523Z,9.77
2022-12-08T19:50:29.690Z,9.72
2022-12-08T19:56:12.601Z,9.68
2022-12-08T20:01:56.045Z,9.65
2022-12-08T20:07:39.940Z,9.61
2022-12-08T20:13:23.444Z,9.57
2022-12-08T20:19:07.583Z,9.53
2022-12-08T20:24:57.342Z,9.5
2022-12-08T20:30:43.516Z,9.47
2022-12-08T20:36:26.809Z,9.45
2022-12-08T20:42:10.856Z,9.42
2022-12-08T20:47:54.117Z,9.37
2022-12-08T20:53:37.159Z,9.35
2022-12-08T20:59:22.520Z,9.3
2022-12-08T21:05:05.880Z,9.28
2022-12-08T21:10:52.264Z,9.25
2022-12-08T21:16:35.304Z,9.22
2022-12-08T21:22:18.754Z,9.21
2022-12-08T21:28:02.496Z,9.16
2022-12-08T21:33:45.805Z,9.15
2022-12-08T21:39:29.238Z,9.11
2022-12-08T21:45:14.283Z,9.08
2022-12-08T21:51:02.609Z,9.03
2022-12-08T21:56:47.742Z,9.02
2022-12-08T22:02:31.969Z,9
2022-12-08T22:08:15.650Z,8.96
2022-12-08T22:13:59.640Z,8.94
2022-12-08T22:19:42.939Z,8.92
2022-12-08T22:25:26.505Z,8.92
2022-12-08T22:31:12.314Z,8.92
2022-12-08T22:36:55.850Z,8.92
2022-12-08T22:42:38.877Z,8.92
2022-12-08T22:48:22.502Z,8.92
2022-12-08T22:54:05.941Z,8.89
2022-12-08T22:59:49.109Z,8.89
2022-12-08T23:05:35.855Z,8.89
2022-12-08T23:11:20.293Z,8.85
2022-12-08T23:17:03.306Z,8.82
2022-12-08T23:22:47.298Z,8.78
2022-12-08T23:28:30.545Z,8.75
2022-12-08T23:34:13.923Z,8.71
2022-12-08T23:39:57.069Z,8.68
2022-12-08T23:45:40.313Z,8.68
2022-12-08T23:51:23.476Z,8.66
2022-12-08T23:57:06.458Z,8.61
